Ashiya Air Base, Japan

5:27 AM JST on September 03, 2014 (GMT +0900)
Akama Station(JR KYUSHU RAILWAY) | Change Station
CLOSE
Current Station
Personal Weather Station
Location: Munakata, FUKUOKA
Elevation: 33 ft
Nearby Weather Stations

Elev 33 ft 33.80 °N, 130.57 °E | Updated 7 seconds ago

Mostly Cloudy
Mostly Cloudy
76.1 °F
Feels Like 76 °F
N
8.1
Wind Variable Wind from ESE
Gusts 8.1 mph

Today
High -- | Low -- °F
--% Chance of Precip.
Yesterday
High -- | Low -- °F
Precip. -- in
5:52 AM 6:41 PM
First Quarter, 54% visible
Pressure 29.77 in
Visibility 6.2 miles
Clouds Scattered Clouds 1000 ft
Mostly Cloudy 2000 ft
Mostly Cloudy 10000 ft
Heat Index 76 °F
Dew Point 74 °F
Humidity 92%
Rainfall 0.00 in
Snow Depth Not available.
UV 0 out of 12
Pollen Not available.
Air Quality Not available.
Flu Activity Not available.
SPECI RJOZ 022009Z 12011KT 9999 SCT010 BKN020 BKN100 25/23 Q1008 RMK 3CU010 5CU020 7AC100 A2978

More Conditions Fewer Conditions

Pressure 29.77 in
Visibility 6.2 miles
Clouds Scattered Clouds 1000 ft
Mostly Cloudy 2000 ft
Mostly Cloudy 10000 ft
Heat Index 76 °F
Dew Point 74 °F
Humidity 92%
Rainfall 0.00 in
Snow Depth Not available.
UV 0 out of 12
Pollen Not available.
Air Quality Not available.
Flu Activity Not available.
SPECI RJOZ 022009Z 12011KT 9999 SCT010 BKN020 BKN100 25/23 Q1008 RMK 3CU010 5CU020 7AC100 A2978

More Conditions Fewer Conditions

10-Day Weather Forecast

Almanac

Astronomy

Sep. 03, 2014 Rise Set
Actual Time 5:52 AM JST 6:41 PM JST
Civil Twilight 5:26 AM JST 7:06 PM JST
Nautical Twilight 4:56 AM JST 7:36 PM JST
Astronomical Twilight 4:25 AM JST 8:07 PM JST
Moon 1:38 PM JST (9/3) No Moon Set
Length of Visible Light 13h 39m
Length of Day
12h 49m
Tomorrow will be 2m 2s shorter.
First Quarter, 54% of the Moon is Illuminated
Sep 2
First Quarter
Sep 8
Full
Sep 15
Last Quarter
Sep 24
New
Oct 1
First Quarter

Yesterday's Extremes

Country Highs Country Lows

Community

WunderPhotos

Upload Photos

1,749,757 photos uploaded!

WunderBlogs® & News

By Dr. Jeff Masters
Director of Meteorology, Weather Underground
By Kari Strenfel
Meteorologist, Weather Underground
By Christopher C. Burt
Weather Historian, Weather Underground
September 2, 2014
September 2, 2014
September 2, 2014

Nearby

Snow Depth

Not available.

Earthquake Activity

City Distance Mag. Time & Date
No recent earthquake activity has been reported nearby.
Minimum magnitude displayed is 2.5.

Coastal Water Temperatures

Place Temperature
No Stations Reporting

Nearby Weather Stations